createdAt,value
2022-11-23T00:01:17.938Z,9.29
2022-11-23T00:05:21.022Z,9.31
2022-11-23T00:09:25.392Z,9.30
2022-11-23T00:13:28.537Z,9.34
2022-11-23T00:17:31.549Z,9.34
2022-11-23T00:21:34.615Z,9.37
2022-11-23T00:25:39.024Z,9.40
2022-11-23T00:29:42.040Z,9.41
2022-11-23T00:33:50.361Z,9.40
2022-11-23T00:37:53.558Z,9.40
2022-11-23T00:41:57.867Z,9.41
2022-11-23T00:46:06.185Z,9.45
2022-11-23T00:50:10.103Z,9.41
2022-11-23T00:54:13.548Z,9.39
2022-11-23T00:58:17.904Z,9.38
2022-11-23T01:02:21.870Z,9.36
2022-11-23T01:06:26.406Z,9.35
2022-11-23T01:10:30.685Z,9.35
2022-11-23T01:14:35.211Z,9.34
2022-11-23T01:18:41.025Z,9.33
2022-11-23T01:22:44.106Z,9.32
2022-11-23T01:26:51.500Z,9.29
2022-11-23T01:31:03.771Z,9.30
2022-11-23T01:35:07.634Z,9.26
2022-11-23T01:39:13.076Z,9.22
2022-11-23T01:43:18.177Z,9.27
2022-11-23T01:47:22.569Z,9.28
2022-11-23T01:51:29.681Z,9.26
2022-11-23T01:55:34.969Z,9.27
2022-11-23T01:59:38.346Z,9.25
2022-11-23T02:03:47.185Z,9.26
2022-11-23T02:07:50.966Z,9.24
2022-11-23T02:11:54.193Z,9.25
2022-11-23T02:15:59.331Z,9.23
2022-11-23T02:20:08.642Z,9.23
2022-11-23T02:24:19.037Z,9.25
2022-11-23T02:28:27.917Z,9.24
2022-11-23T02:32:31.926Z,9.24
2022-11-23T02:36:40.697Z,9.20
2022-11-23T02:40:43.951Z,9.19
2022-11-23T02:44:57.331Z,9.23
2022-11-23T02:49:00.258Z,9.24
2022-11-23T02:53:04.112Z,9.31
2022-11-23T02:57:08.977Z,9.32
2022-11-23T03:01:17.399Z,9.33
2022-11-23T03:05:23.080Z,9.36
2022-11-23T03:09:28.346Z,9.40
2022-11-23T03:13:31.447Z,9.41
2022-11-23T03:17:37.662Z,9.39
2022-11-23T03:21:40.711Z,9.44
2022-11-23T03:25:44.177Z,9.45
2022-11-23T03:29:49.956Z,9.46
2022-11-23T03:33:57.777Z,9.39
2022-11-23T03:38:01.942Z,9.34
2022-11-23T03:42:05.546Z,9.33
2022-11-23T03:46:10.938Z,9.29
2022-11-23T03:50:15.469Z,9.30
2022-11-23T03:54:18.918Z,9.34
2022-11-23T03:58:22.713Z,9.29
2022-11-23T04:02:25.920Z,9.32
2022-11-23T04:06:41.089Z,9.35
2022-11-23T04:10:57.879Z,9.31
2022-11-23T04:15:12.361Z,9.29
2022-11-23T04:19:15.419Z,9.31
2022-11-23T04:23:20.529Z,9.30
2022-11-23T04:27:25.637Z,9.29
2022-11-23T04:31:28.703Z,9.30
2022-11-23T04:35:45.012Z,9.29
2022-11-23T04:39:49.950Z,9.26
2022-11-23T04:43:56.237Z,9.25
2022-11-23T04:48:00.795Z,9.25
2022-11-23T04:52:04.496Z,9.23
2022-11-23T04:56:14.023Z,9.21
2022-11-23T05:00:19.120Z,9.14
2022-11-23T05:04:23.974Z,9.11
2022-11-23T05:08:27.250Z,9.11
2022-11-23T05:12:54.720Z,9.08
2022-11-23T05:16:58.318Z,9.05
2022-11-23T05:21:02.386Z,9.06
2022-11-23T05:25:06.960Z,9.02
2022-11-23T05:29:12.883Z,9.03
2022-11-23T05:33:16.538Z,9.02
2022-11-23T05:37:20.322Z,9.02
2022-11-23T05:41:29.541Z,9.05
2022-11-23T05:45:37.423Z,9.08
2022-11-23T05:49:40.519Z,9.05
2022-11-23T05:53:43.728Z,9.09
2022-11-23T05:58:15.756Z,9.13
2022-11-23T06:02:20.402Z,9.11
2022-11-23T06:06:27.111Z,9.11
2022-11-23T06:10:30.296Z,9.07
2022-11-23T06:14:33.701Z,9.10
2022-11-23T06:18:38.363Z,9.09
2022-11-23T06:22:41.796Z,9.07
2022-11-23T06:26:45.518Z,9.12
2022-11-23T06:30:48.598Z,9.15
2022-11-23T06:34:55.658Z,9.16
2022-11-23T06:39:02.779Z,9.17
2022-11-23T06:43:05.929Z,9.12
2022-11-23T06:47:18.326Z,9.15
2022-11-23T06:51:25.080Z,9.08
2022-11-23T06:55:29.049Z,9.07
2022-11-23T06:59:32.608Z,9.02
2022-11-23T07:03:36.411Z,8.94
2022-11-23T07:07:49.895Z,8.95
2022-11-23T07:11:59.267Z,8.95
2022-11-23T07:16:02.720Z,8.81
2022-11-23T07:20:07.293Z,8.67
2022-11-23T07:24:12.113Z,8.58
2022-11-23T07:28:15.334Z,8.41
2022-11-23T07:32:18.428Z,8.50
2022-11-23T07:36:21.622Z,8.62
2022-11-23T07:40:26.606Z,8.72
2022-11-23T07:44:30.043Z,8.85
2022-11-23T07:48:36.295Z,8.94
2022-11-23T07:52:41.092Z,9.02
2022-11-23T07:56:46.784Z,9.08
2022-11-23T08:00:49.985Z,9.13
2022-11-23T08:04:53.024Z,9.28
2022-11-23T08:08:56.939Z,9.21
2022-11-23T08:13:03.336Z,9.30
2022-11-23T08:17:06.649Z,9.44
2022-11-23T08:21:09.658Z,9.33
2022-11-23T08:25:12.742Z,9.38
2022-11-23T08:29:17.272Z,9.51
2022-11-23T08:33:20.368Z,9.66
2022-11-23T08:37:23.440Z,9.74
2022-11-23T08:41:27.411Z,9.77
2022-11-23T08:45:32.029Z,9.86
2022-11-23T08:49:35.089Z,9.95
2022-11-23T08:53:38.686Z,10.06
2022-11-23T08:57:42.111Z,10.01
2022-11-23T09:01:46.997Z,10.26
2022-11-23T09:05:51.172Z,10.26
2022-11-23T09:09:54.222Z,10.57
2022-11-23T09:13:57.401Z,10.17
2022-11-23T09:18:01.798Z,10.60
2022-11-23T09:22:05.157Z,10.85
2022-11-23T09:26:08.247Z,10.79
2022-11-23T09:30:12.685Z,10.85
2022-11-23T09:34:17.290Z,10.98
2022-11-23T09:38:29.303Z,11.05
2022-11-23T09:43:09.266Z,10.76
2022-11-23T09:47:41.616Z,10.89
2022-11-23T09:51:46.821Z,10.94
2022-11-23T09:55:52.792Z,11.19
2022-11-23T10:00:02.070Z,11.07
2022-11-23T10:04:10.976Z,11.75
2022-11-23T10:08:27.141Z,11.96
2022-11-23T10:12:43.473Z,12.06
2022-11-23T10:16:54.092Z,12.47
2022-11-23T10:21:04.029Z,12.41
2022-11-23T10:25:17.168Z,12.25
2022-11-23T10:29:26.971Z,12.40
2022-11-23T10:33:34.103Z,12.44
2022-11-23T10:37:40.023Z,13.01
2022-11-23T10:41:45.600Z,13.18
2022-11-23T10:45:48.758Z,12.22
2022-11-23T10:49:58.946Z,12.35
2022-11-23T10:54:05.662Z,12.25
2022-11-23T10:58:26.755Z,12.52
2022-11-23T11:02:30.970Z,13.37
2022-11-23T11:06:36.297Z,13.42
2022-11-23T11:10:42.437Z,13.72
2022-11-23T11:15:05.191Z,12.61
2022-11-23T11:19:27.855Z,11.68
2022-11-23T11:23:32.422Z,11.49
2022-11-23T11:27:35.563Z,11.17
2022-11-23T11:31:53.460Z,11.46
2022-11-23T11:35:57.630Z,11.63
2022-11-23T11:40:11.956Z,11.27
2022-11-23T11:44:21.293Z,11.44
2022-11-23T11:48:31.663Z,11.26
2022-11-23T11:52:38.719Z,11.24
2022-11-23T11:56:46.156Z,11.18
2022-11-23T12:00:51.713Z,11.08
2022-11-23T12:05:05.708Z,11.08
2022-11-23T12:09:15.724Z,11.20
2022-11-23T12:13:21.179Z,11.96
2022-11-23T12:17:48.727Z,12.55
2022-11-23T12:22:10.583Z,12.96
2022-11-23T12:26:23.511Z,13.19
2022-11-23T12:30:32.133Z,13.22
2022-11-23T12:34:54.979Z,12.90
2022-11-23T12:39:11.122Z,13.31
2022-11-23T12:43:20.956Z,12.87
2022-11-23T12:47:39.176Z,13.68
2022-11-23T12:51:50.548Z,13.40
2022-11-23T12:56:03.997Z,13.01
2022-11-23T13:00:14.081Z,13.72
2022-11-23T13:04:47.131Z,13.97
2022-11-23T13:09:26.233Z,13.38
2022-11-23T13:13:50.923Z,13.54
2022-11-23T13:18:01.152Z,12.94
2022-11-23T13:22:07.583Z,12.03
2022-11-23T13:26:15.472Z,11.51
2022-11-23T13:35:05.242Z,11.08
2022-11-23T13:39:58.954Z,11.00
2022-11-23T13:44:13.615Z,11.03
2022-11-23T13:48:55.025Z,11.01
2022-11-23T13:52:50.824Z,10.79
2022-11-23T13:57:00.129Z,10.69
2022-11-23T14:01:03.277Z,10.61
2022-11-23T14:05:46.018Z,10.52
2022-11-23T14:09:55.789Z,10.49
2022-11-23T14:14:02.530Z,10.35
2022-11-23T14:18:31.545Z,10.35
2022-11-23T14:22:44.257Z,10.31
2022-11-23T14:27:30.702Z,10.16
2022-11-23T14:31:46.471Z,9.92
2022-11-23T14:35:59.614Z,9.84
2022-11-23T14:40:12.832Z,9.80
2022-11-23T14:44:25.644Z,9.78
2022-11-23T14:48:30.771Z,9.49
2022-11-23T14:52:36.995Z,9.05
2022-11-23T14:56:45.205Z,8.76
2022-11-23T15:00:50.870Z,8.59
2022-11-23T15:04:58.956Z,8.44
2022-11-23T15:09:05.906Z,8.32
2022-11-23T15:13:19.991Z,8.23
2022-11-23T15:17:24.853Z,8.18
2022-11-23T15:21:28.390Z,8.17
2022-11-23T15:25:31.319Z,8.12
2022-11-23T15:29:35.419Z,8.09
2022-11-23T15:33:40.021Z,8.06
2022-11-23T15:37:45.118Z,8.04
2022-11-23T15:41:48.181Z,8.03
2022-11-23T15:46:02.642Z,8.02
2022-11-23T15:50:10.035Z,7.97
2022-11-23T15:54:16.391Z,7.94
2022-11-23T15:58:19.862Z,7.95
2022-11-23T16:02:23.345Z,7.96
2022-11-23T16:06:35.431Z,7.92
2022-11-23T16:10:54.457Z,7.97
2022-11-23T16:14:58.732Z,8.00
2022-11-23T16:19:01.776Z,8.04
2022-11-23T16:23:07.269Z,8.08
2022-11-23T16:27:15.258Z,8.02
2022-11-23T16:31:29.178Z,7.98
2022-11-23T16:35:32.432Z,7.94
2022-11-23T16:39:36.817Z,7.88
2022-11-23T16:43:40.182Z,7.84
2022-11-23T16:47:53.261Z,7.79
2022-11-23T16:51:57.355Z,7.77
2022-11-23T16:56:03.764Z,7.75
2022-11-23T17:00:08.266Z,7.73
2022-11-23T17:04:11.763Z,7.73
2022-11-23T17:08:23.047Z,7.74
2022-11-23T17:12:27.831Z,7.71
2022-11-23T17:16:31.198Z,7.68
2022-11-23T17:20:34.174Z,7.67
2022-11-23T17:24:37.071Z,7.64
2022-11-23T17:28:41.359Z,7.60
2022-11-23T17:32:44.327Z,7.57
2022-11-23T17:36:48.190Z,7.61
2022-11-23T17:40:51.159Z,7.61
2022-11-23T17:44:55.708Z,7.61
2022-11-23T17:49:02.492Z,7.62
2022-11-23T17:53:05.891Z,7.62
2022-11-23T17:57:14.134Z,7.64
2022-11-23T18:01:19.984Z,7.65
2022-11-23T18:05:23.088Z,7.69
2022-11-23T18:09:26.310Z,7.72
2022-11-23T18:13:29.354Z,7.76
2022-11-23T18:17:33.808Z,7.74
2022-11-23T18:21:37.271Z,7.79
2022-11-23T18:25:40.459Z,7.83
2022-11-23T18:29:43.620Z,7.82
2022-11-23T18:33:48.329Z,7.81
2022-11-23T18:37:51.465Z,7.73
2022-11-23T18:41:54.772Z,7.69
2022-11-23T18:45:58.228Z,7.59
2022-11-23T18:50:06.464Z,7.57
2022-11-23T18:54:10.044Z,7.52
2022-11-23T18:58:13.188Z,7.44
2022-11-23T19:02:16.759Z,7.41
2022-11-23T19:06:22.911Z,7.34
2022-11-23T19:10:25.980Z,7.33
2022-11-23T19:14:29.044Z,7.42
2022-11-23T19:18:32.421Z,7.26
2022-11-23T19:22:37.337Z,7.19
2022-11-23T19:26:40.481Z,7.32
2022-11-23T19:30:43.576Z,7.22
2022-11-23T19:34:46.716Z,7.23
2022-11-23T19:38:51.793Z,7.26
2022-11-23T19:42:55.323Z,7.30
2022-11-23T19:46:58.436Z,7.28
2022-11-23T19:51:03.484Z,7.33
2022-11-23T19:55:08.980Z,7.34
2022-11-23T19:59:12.032Z,7.38
2022-11-23T20:03:15.411Z,7.50
2022-11-23T20:07:18.890Z,7.44
2022-11-23T20:11:23.843Z,7.54
2022-11-23T20:15:27.359Z,7.68
2022-11-23T20:19:31.651Z,7.52
2022-11-23T20:23:34.933Z,7.62
2022-11-23T20:27:39.316Z,7.64
2022-11-23T20:31:42.492Z,7.69
2022-11-23T20:35:45.930Z,7.75
2022-11-23T20:39:49.121Z,7.91
2022-11-23T20:43:55.520Z,8.01
2022-11-23T20:47:58.843Z,8.04
2022-11-23T20:52:02.117Z,8.11
2022-11-23T20:56:07.904Z,8.04
2022-11-23T21:00:13.973Z,8.18
2022-11-23T21:04:17.027Z,8.16
2022-11-23T21:08:30.271Z,8.30
2022-11-23T21:12:53.975Z,8.23
2022-11-23T21:16:59.578Z,8.36
2022-11-23T21:21:03.177Z,8.44
2022-11-23T21:25:07.066Z,8.58
2022-11-23T21:29:11.443Z,8.69
2022-11-23T21:33:15.958Z,8.65
2022-11-23T21:37:19.004Z,8.73
2022-11-23T21:41:23.904Z,8.71
2022-11-23T21:45:28.181Z,8.78
2022-11-23T21:49:32.579Z,8.95
2022-11-23T21:53:36.649Z,8.95
2022-11-23T21:57:39.710Z,8.90
2022-11-23T22:01:43.245Z,8.93
2022-11-23T22:05:57.562Z,9.14
2022-11-23T22:10:00.613Z,9.03
2022-11-23T22:14:05.650Z,9.00
2022-11-23T22:18:08.683Z,9.01
2022-11-23T22:22:13.480Z,8.98
2022-11-23T22:26:18.170Z,8.95
2022-11-23T22:30:21.296Z,8.94
2022-11-23T22:34:24.341Z,8.98
2022-11-23T22:38:32.231Z,8.91
2022-11-23T22:42:35.257Z,9.03
2022-11-23T22:46:39.509Z,9.12
2022-11-23T22:50:43.920Z,8.99
2022-11-23T22:54:48.301Z,9.07
2022-11-23T22:58:51.397Z,9.13
2022-11-23T23:02:56.288Z,9.21
2022-11-23T23:06:59.748Z,9.16
2022-11-23T23:11:08.224Z,9.06
2022-11-23T23:15:12.070Z,8.99
2022-11-23T23:19:15.232Z,9.00
2022-11-23T23:23:18.221Z,8.84
2022-11-23T23:27:22.726Z,8.96
2022-11-23T23:31:26.503Z,8.95
2022-11-23T23:35:29.596Z,8.99
2022-11-23T23:39:32.670Z,9.00
2022-11-23T23:43:37.336Z,9.06
2022-11-23T23:47:40.740Z,9.10
2022-11-23T23:51:47.569Z,9.15
2022-11-23T23:55:57.756Z,9.16
